sensor_id;sensor_type;location;lat;lon;timestamp;pressure;altitude;pressure_sealevel;temperature;humidity
18167;BME280;9208;42.688;23.404;2023-03-01T00:01:07;95999.81;;;8.05;100.00
18167;BME280;9208;42.688;23.404;2023-03-01T00:03:33;95992.44;;;7.93;100.00
18167;BME280;9208;42.688;23.404;2023-03-01T00:05:59;95996.00;;;7.81;100.00
18167;BME280;9208;42.688;23.404;2023-03-01T00:08:25;95994.19;;;7.78;100.00
18167;BME280;9208;42.688;23.404;2023-03-01T00:13:27;95990.50;;;7.94;100.00
18167;BME280;9208;42.688;23.404;2023-03-01T00:15:52;95994.56;;;7.89;100.00
18167;BME280;9208;42.688;23.404;2023-03-01T00:18:17;95989.28;;;7.95;100.00
18167;BME280;9208;42.688;23.404;2023-03-01T00:20:50;95982.59;;;7.96;100.00
18167;BME280;9208;42.688;23.404;2023-03-01T00:23:16;95979.88;;;7.96;100.00
18167;BME280;9208;42.688;23.404;2023-03-01T00:25:42;95973.97;;;7.97;100.00
18167;BME280;9208;42.688;23.404;2023-03-01T00:28:08;95975.88;;;7.88;100.00
18167;BME280;9208;42.688;23.404;2023-03-01T00:30:33;95975.00;;;7.91;100.00
18167;BME280;9208;42.688;23.404;2023-03-01T00:32:59;95968.38;;;8.01;100.00
18167;BME280;9208;42.688;23.404;2023-03-01T00:35:24;95969.78;;;8.05;100.00
18167;BME280;9208;42.688;23.404;2023-03-01T00:37:49;95969.16;;;8.01;100.00
18167;BME280;9208;42.688;23.404;2023-03-01T00:40:25;95957.06;;;7.81;100.00
18167;BME280;9208;42.688;23.404;2023-03-01T00:42:50;95955.66;;;7.76;100.00
18167;BME280;9208;42.688;23.404;2023-03-01T00:45:16;95948.19;;;7.68;100.00
18167;BME280;9208;42.688;23.404;2023-03-01T00:47:42;95946.44;;;7.52;100.00
18167;BME280;9208;42.688;23.404;2023-03-01T00:50:08;95947.00;;;7.47;100.00
18167;BME280;9208;42.688;23.404;2023-03-01T00:52:33;95952.28;;;7.42;100.00
18167;BME280;9208;42.688;23.404;2023-03-01T00:54:59;95951.69;;;7.47;100.00
18167;BME280;9208;42.688;23.404;2023-03-01T00:57:24;95951.19;;;7.39;100.00
18167;BME280;9208;42.688;23.404;2023-03-01T00:59:49;95948.28;;;7.34;100.00
18167;BME280;9208;42.688;23.404;2023-03-01T01:02:17;95940.72;;;7.38;100.00
18167;BME280;9208;42.688;23.404;2023-03-01T01:04:43;95941.94;;;7.37;100.00
18167;BME280;9208;42.688;23.404;2023-03-01T01:07:09;95948.28;;;7.34;100.00
18167;BME280;9208;42.688;23.404;2023-03-01T01:09:34;95949.34;;;7.36;100.00
18167;BME280;9208;42.688;23.404;2023-03-01T01:11:59;95952.97;;;7.33;100.00
18167;BME280;9208;42.688;23.404;2023-03-01T01:14:25;95956.88;;;7.32;100.00
18167;BME280;9208;42.688;23.404;2023-03-01T01:16:50;95952.66;;;7.31;100.00
18167;BME280;9208;42.688;23.404;2023-03-01T01:19:16;95952.00;;;7.27;100.00
18167;BME280;9208;42.688;23.404;2023-03-01T01:21:41;95946.69;;;7.24;100.00
18167;BME280;9208;42.688;23.404;2023-03-01T01:24:10;95948.53;;;7.27;100.00
18167;BME280;9208;42.688;23.404;2023-03-01T01:26:36;95948.59;;;7.36;100.00
18167;BME280;9208;42.688;23.404;2023-03-01T01:29:03;95952.66;;;7.31;100.00
18167;BME280;9208;42.688;23.404;2023-03-01T01:31:29;95949.97;;;7.40;100.00
18167;BME280;9208;42.688;23.404;2023-03-01T01:33:55;95953.69;;;7.46;100.00
18167;BME280;9208;42.688;23.404;2023-03-01T01:36:21;95954.56;;;7.43;100.00
18167;BME280;9208;42.688;23.404;2023-03-01T01:38:47;95950.75;;;7.41;100.00
18167;BME280;9208;42.688;23.404;2023-03-01T01:41:13;95959.69;;;7.41;100.00
18167;BME280;9208;42.688;23.404;2023-03-01T01:43:43;95962.41;;;7.41;100.00
18167;BME280;9208;42.688;23.404;2023-03-01T01:46:28;95965.97;;;7.51;100.00
18167;BME280;9208;42.688;23.404;2023-03-01T01:49:04;95954.41;;;7.47;100.00
18167;BME280;9208;42.688;23.404;2023-03-01T01:51:35;95967.63;;;7.48;100.00
18167;BME280;9208;42.688;23.404;2023-03-01T01:54:08;95958.81;;;7.44;100.00
18167;BME280;9208;42.688;23.404;2023-03-01T01:56:36;95954.56;;;7.43;100.00
18167;BME280;9208;42.688;23.404;2023-03-01T01:59:03;95949.59;;;7.51;100.00
18167;BME280;9208;42.688;23.404;2023-03-01T02:01:28;95947.19;;;7.53;100.00
18167;BME280;9208;42.688;23.404;2023-03-01T02:03:54;95945.84;;;7.57;100.00
18167;BME280;9208;42.688;23.404;2023-03-01T02:08:47;95943.44;;;7.59;100.00
18167;BME280;9208;42.688;23.404;2023-03-01T02:11:14;95947.91;;;7.75;100.00
18167;BME280;9208;42.688;23.404;2023-03-01T02:13:40;95933.81;;;7.76;100.00
18167;BME280;9208;42.688;23.404;2023-03-01T02:16:11;95939.63;;;7.78;100.00
18167;BME280;9208;42.688;23.404;2023-03-01T02:18:39;95936.84;;;7.69;100.00
18167;BME280;9208;42.688;23.404;2023-03-01T02:26:50;95943.44;;;7.59;100.00
18167;BME280;9208;42.688;23.404;2023-03-01T02:29:17;95938.88;;;7.56;100.00
18167;BME280;9208;42.688;23.404;2023-03-01T02:31:42;95941.31;;;7.63;100.00
18167;BME280;9208;42.688;23.404;2023-03-01T02:34:11;95939.22;;;7.67;100.00
18167;BME280;9208;42.688;23.404;2023-03-01T02:36:44;95943.56;;;7.77;100.00
18167;BME280;9208;42.688;23.404;2023-03-01T02:39:14;95950.97;;;7.77;100.00
18167;BME280;9208;42.688;23.404;2023-03-01T02:41:44;95956.00;;;7.78;100.00
18167;BME280;9208;42.688;23.404;2023-03-01T02:44:11;95953.06;;;7.73;100.00
18167;BME280;9208;42.688;23.404;2023-03-01T02:46:43;95946.59;;;7.79;100.00
18167;BME280;9208;42.688;23.404;2023-03-01T02:49:25;95944.50;;;7.83;100.00
18167;BME280;9208;42.688;23.404;2023-03-01T02:52:00;95938.41;;;7.79;100.00
18167;BME280;9208;42.688;23.404;2023-03-01T02:54:33;95939.03;;;7.83;100.00
18167;BME280;9208;42.688;23.404;2023-03-01T02:57:02;95937.63;;;7.79;100.00
18167;BME280;9208;42.688;23.404;2023-03-01T02:59:31;95938.25;;;7.83;100.00
18167;BME280;9208;42.688;23.404;2023-03-01T03:02:05;95946.78;;;7.85;100.00
18167;BME280;9208;42.688;23.404;2023-03-01T03:04:31;95936.78;;;7.91;100.00
18167;BME280;9208;42.688;23.404;2023-03-01T03:06:57;95945.50;;;7.77;100.00
18167;BME280;9208;42.688;23.404;2023-03-01T03:09:22;95926.84;;;7.75;100.00
18167;BME280;9208;42.688;23.404;2023-03-01T03:11:48;95941.16;;;7.88;100.00
18167;BME280;9208;42.688;23.404;2023-03-01T03:14:15;95941.97;;;7.98;100.00
18167;BME280;9208;42.688;23.404;2023-03-01T03:16:43;95940.13;;;7.95;100.00
18167;BME280;9208;42.688;23.404;2023-03-01T03:19:12;95947.75;;;8.00;100.00
18167;BME280;9208;42.688;23.404;2023-03-01T03:21:38;95946.63;;;7.88;100.00
18167;BME280;9208;42.688;23.404;2023-03-01T03:24:03;95947.34;;;7.80;100.00
18167;BME280;9208;42.688;23.404;2023-03-01T03:26:29;95952.63;;;7.74;100.00
18167;BME280;9208;42.688;23.404;2023-03-01T03:28:55;95952.47;;;7.78;100.00
18167;BME280;9208;42.688;23.404;2023-03-01T03:31:20;95954.53;;;7.65;100.00
18167;BME280;9208;42.688;23.404;2023-03-01T03:33:45;95951.13;;;7.52;100.00
18167;BME280;9208;42.688;23.404;2023-03-01T03:36:24;95958.56;;;7.51;100.00
18167;BME280;9208;42.688;23.404;2023-03-01T03:38:49;95957.06;;;7.59;100.00
18167;BME280;9208;42.688;23.404;2023-03-01T03:41:15;95954.97;;;7.63;100.00
18167;BME280;9208;42.688;23.404;2023-03-01T03:43:42;95955.44;;;7.62;100.00
18167;BME280;9208;42.688;23.404;2023-03-01T03:46:09;95963.75;;;7.58;100.00
18167;BME280;9208;42.688;23.404;2023-03-01T03:48:39;95954.81;;;7.58;100.00
18167;BME280;9208;42.688;23.404;2023-03-01T03:51:05;95965.47;;;7.43;100.00
18167;BME280;9208;42.688;23.404;2023-03-01T03:53:31;95961.00;;;7.58;100.00
18167;BME280;9208;42.688;23.404;2023-03-01T03:55:57;95961.66;;;7.62;100.00
18167;BME280;9208;42.688;23.404;2023-03-01T03:58:24;95966.84;;;7.69;100.00
18167;BME280;9208;42.688;23.404;2023-03-01T04:00:55;95960.13;;;7.61;100.00
18167;BME280;9208;42.688;23.404;2023-03-01T04:03:22;95957.91;;;7.69;100.00
18167;BME280;9208;42.688;23.404;2023-03-01T04:05:50;95963.78;;;7.67;100.00
18167;BME280;9208;42.688;23.404;2023-03-01T04:08:17;95964.06;;;7.60;100.00
18167;BME280;9208;42.688;23.404;2023-03-01T04:10:46;95962.94;;;7.49;100.00
18167;BME280;9208;42.688;23.404;2023-03-01T04:13:15;95967.03;;;7.53;100.00
18167;BME280;9208;42.688;23.404;2023-03-01T04:15:41;95970.47;;;7.45;100.00
18167;BME280;9208;42.688;23.404;2023-03-01T04:18:11;95967.88;;;7.41;100.00
18167;BME280;9208;42.688;23.404;2023-03-01T04:20:37;95966.28;;;7.31;100.00
18167;BME280;9208;42.688;23.404;2023-03-01T04:23:08;95967.13;;;7.19;100.00
18167;BME280;9208;42.688;23.404;2023-03-01T04:25:49;95961.97;;;7.21;100.00
18167;BME280;9208;42.688;23.404;2023-03-01T04:28:23;95958.97;;;7.07;100.00
18167;BME280;9208;42.688;23.404;2023-03-01T04:30:50;95964.88;;;7.05;100.00
18167;BME280;9208;42.688;23.404;2023-03-01T04:33:15;95960.63;;;7.04;100.00
18167;BME280;9208;42.688;23.404;2023-03-01T04:35:41;95969.88;;;7.07;100.00
18167;BME280;9208;42.688;23.404;2023-03-01T04:38:07;95964.31;;;7.10;100.00
18167;BME280;9208;42.688;23.404;2023-03-01T04:40:33;95958.22;;;7.06;100.00
18167;BME280;9208;42.688;23.404;2023-03-01T04:42:59;95958.41;;;7.12;100.00
18167;BME280;9208;42.688;23.404;2023-03-01T04:45:24;95951.81;;;7.00;100.00
18167;BME280;9208;42.688;23.404;2023-03-01T04:47:50;95948.63;;;7.02;100.00
18167;BME280;9208;42.688;23.404;2023-03-01T04:50:18;95950.34;;;6.87;100.00
18167;BME280;9208;42.688;23.404;2023-03-01T04:52:46;95955.16;;;6.83;100.00
18167;BME280;9208;42.688;23.404;2023-03-01T04:55:13;95954.38;;;6.82;100.00
18167;BME280;9208;42.688;23.404;2023-03-01T04:57:39;95949.81;;;6.79;100.00
18167;BME280;9208;42.688;23.404;2023-03-01T05:00:07;95949.47;;;6.77;100.00
18167;BME280;9208;42.688;23.404;2023-03-01T05:07:52;95960.28;;;6.81;100.00
18167;BME280;9208;42.688;23.404;2023-03-01T05:10:17;95953.94;;;6.84;100.00
18167;BME280;9208;42.688;23.404;2023-03-01T05:12:43;95963.97;;;6.87;100.00
18167;BME280;9208;42.688;23.404;2023-03-01T05:15:08;95958.72;;;6.92;100.00
18167;BME280;9208;42.688;23.404;2023-03-01T05:17:34;95960.09;;;6.97;100.00
18167;BME280;9208;42.688;23.404;2023-03-01T05:19:59;95956.19;;;6.98;100.00
18167;BME280;9208;42.688;23.404;2023-03-01T05:22:26;95966.06;;;7.04;100.00
18167;BME280;9208;42.688;23.404;2023-03-01T05:24:52;95964.34;;;6.98;100.00
18167;BME280;9208;42.688;23.404;2023-03-01T05:27:19;95965.75;;;7.02;100.00
18167;BME280;9208;42.688;23.404;2023-03-01T05:29:47;95960.97;;;7.06;100.00
18167;BME280;9208;42.688;23.404;2023-03-01T05:32:12;95962.13;;;7.05;100.00
18167;BME280;9208;42.688;23.404;2023-03-01T05:34:41;95963.78;;;7.03;100.00
18167;BME280;9208;42.688;23.404;2023-03-01T05:37:06;95964.63;;;7.12;100.00
18167;BME280;9208;42.688;23.404;2023-03-01T05:39:33;95967.16;;;7.07;100.00
18167;BME280;9208;42.688;23.404;2023-03-01T05:42:00;95969.78;;;7.10;100.00
18167;BME280;9208;42.688;23.404;2023-03-01T05:44:27;95957.31;;;7.09;100.00
18167;BME280;9208;42.688;23.404;2023-03-01T05:46:53;95966.22;;;7.22;100.00
18167;BME280;9208;42.688;23.404;2023-03-01T05:49:18;95973.72;;;7.31;100.00
18167;BME280;9208;42.688;23.404;2023-03-01T05:51:48;95982.06;;;7.36;100.00
18167;BME280;9208;42.688;23.404;2023-03-01T05:54:14;95975.25;;;7.32;100.00
18167;BME280;9208;42.688;23.404;2023-03-01T05:56:40;95980.56;;;7.35;100.00
18167;BME280;9208;42.688;23.404;2023-03-01T05:59:05;95978.09;;;7.28;100.00
18167;BME280;9208;42.688;23.404;2023-03-01T06:01:35;95991.09;;;7.24;100.00
18167;BME280;9208;42.688;23.404;2023-03-01T06:04:00;95990.66;;;7.26;100.00
18167;BME280;9208;42.688;23.404;2023-03-01T06:06:26;95989.31;;;7.30;100.00
18167;BME280;9208;42.688;23.404;2023-03-01T06:08:52;95994.63;;;7.34;100.00
18167;BME280;9208;42.688;23.404;2023-03-01T06:11:18;95993.69;;;7.28;100.00
18167;BME280;9208;42.688;23.404;2023-03-01T06:13:44;95996.72;;;7.30;100.00
18167;BME280;9208;42.688;23.404;2023-03-01T06:16:13;96002.31;;;7.26;100.00
18167;BME280;9208;42.688;23.404;2023-03-01T06:18:39;96002.56;;;7.19;100.00
18167;BME280;9208;42.688;23.404;2023-03-01T06:21:05;96011.38;;;7.23;100.00
18167;BME280;9208;42.688;23.404;2023-03-01T06:23:31;96003.66;;;7.22;100.00
18167;BME280;9208;42.688;23.404;2023-03-01T06:25:57;96013.28;;;7.35;100.00
18167;BME280;9208;42.688;23.404;2023-03-01T06:28:22;96004.28;;;7.26;100.00
18167;BME280;9208;42.688;23.404;2023-03-01T06:30:49;96000.03;;;7.25;100.00
18167;BME280;9208;42.688;23.404;2023-03-01T06:33:18;96002.09;;;7.21;100.00
18167;BME280;9208;42.688;23.404;2023-03-01T06:35:46;96000.84;;;7.13;100.00
18167;BME280;9208;42.688;23.404;2023-03-01T06:38:12;96000.31;;;7.05;100.00
18167;BME280;9208;42.688;23.404;2023-03-01T06:40:40;96000.31;;;7.05;100.00
18167;BME280;9208;42.688;23.404;2023-03-01T06:43:06;96002.72;;;7.03;100.00
18167;BME280;9208;42.688;23.404;2023-03-01T06:45:32;96003.88;;;7.15;100.00
18167;BME280;9208;42.688;23.404;2023-03-01T06:48:05;95999.00;;;7.10;100.00
18167;BME280;9208;42.688;23.404;2023-03-01T06:50:31;95994.84;;;7.05;100.00
18167;BME280;9208;42.688;23.404;2023-03-01T06:52:57;95998.22;;;7.09;100.00
18167;BME280;9208;42.688;23.404;2023-03-01T06:55:23;95994.53;;;7.03;100.00
18167;BME280;9208;42.688;23.404;2023-03-01T06:57:48;96001.19;;;7.02;100.00
18167;BME280;9208;42.688;23.404;2023-03-01T07:00:14;96002.59;;;7.07;100.00
18167;BME280;9208;42.688;23.404;2023-03-01T07:02:40;96011.25;;;7.27;100.00
18167;BME280;9208;42.688;23.404;2023-03-01T07:05:05;96010.75;;;7.41;100.00
18167;BME280;9208;42.688;23.404;2023-03-01T07:07:31;96011.13;;;7.52;100.00
18167;BME280;9208;42.688;23.404;2023-03-01T07:09:56;96003.22;;;7.66;100.00
18167;BME280;9208;42.688;23.404;2023-03-01T07:12:22;96010.94;;;7.89;100.00
18167;BME280;9208;42.688;23.404;2023-03-01T07:14:47;96008.63;;;8.09;100.00
18167;BME280;9208;42.688;23.404;2023-03-01T07:17:12;96000.25;;;8.34;100.00
18167;BME280;9208;42.688;23.404;2023-03-01T07:19:38;96012.75;;;8.53;100.00
18167;BME280;9208;42.688;23.404;2023-03-01T07:22:04;96006.00;;;8.67;100.00
18167;BME280;9208;42.688;23.404;2023-03-01T07:24:29;96007.25;;;8.84;100.00
18167;BME280;9208;42.688;23.404;2023-03-01T07:26:55;96002.25;;;8.91;100.00
18167;BME280;9208;42.688;23.404;2023-03-01T07:29:20;96010.16;;;8.98;100.00
18167;BME280;9208;42.688;23.404;2023-03-01T07:31:46;96003.31;;;9.03;100.00
18167;BME280;9208;42.688;23.404;2023-03-01T07:34:11;95998.03;;;9.08;100.00
18167;BME280;9208;42.688;23.404;2023-03-01T07:36:37;95998.31;;;9.19;100.00
18167;BME280;9208;42.688;23.404;2023-03-01T07:39:03;95994.06;;;9.27;100.00
18167;BME280;9208;42.688;23.404;2023-03-01T07:41:29;95995.75;;;9.43;100.00
18167;BME280;9208;42.688;23.404;2023-03-01T07:43:55;96001.69;;;9.41;100.00
18167;BME280;9208;42.688;23.404;2023-03-01T07:46:20;96003.97;;;9.43;100.00
18167;BME280;9208;42.688;23.404;2023-03-01T07:48:46;95999.09;;;9.47;100.00
18167;BME280;9208;42.688;23.404;2023-03-01T07:51:12;95995.28;;;9.53;100.00
18167;BME280;9208;42.688;23.404;2023-03-01T07:53:37;95994.69;;;9.49;100.00
18167;BME280;9208;42.688;23.404;2023-03-01T07:56:05;95990.44;;;9.57;100.00
18167;BME280;9208;42.688;23.404;2023-03-01T07:58:30;95988.88;;;9.65;100.00
18167;BME280;9208;42.688;23.404;2023-03-01T08:01:01;95982.22;;;9.66;100.00
18167;BME280;9208;42.688;23.404;2023-03-01T08:03:27;95982.22;;;9.66;100.00
18167;BME280;9208;42.688;23.404;2023-03-01T08:05:52;95979.91;;;9.65;100.00
18167;BME280;9208;42.688;23.404;2023-03-01T08:08:17;95982.50;;;9.68;100.00
18167;BME280;9208;42.688;23.404;2023-03-01T08:10:45;95982.66;;;9.74;100.00
18167;BME280;9208;42.688;23.404;2023-03-01T08:13:11;95979.91;;;9.74;100.00
18167;BME280;9208;42.688;23.404;2023-03-01T08:15:36;95989.31;;;9.82;100.00
18167;BME280;9208;42.688;23.404;2023-03-01T08:18:02;95979.91;;;9.74;100.00
18167;BME280;9208;42.688;23.404;2023-03-01T08:20:27;95971.69;;;9.74;100.00
18167;BME280;9208;42.688;23.404;2023-03-01T08:22:52;95975.16;;;9.83;100.00
18167;BME280;9208;42.688;23.404;2023-03-01T08:25:18;95977.88;;;9.83;100.00
18167;BME280;9208;42.688;23.404;2023-03-01T08:27:43;95975.75;;;9.87;100.00
18167;BME280;9208;42.688;23.404;2023-03-01T08:30:09;95977.91;;;9.74;100.00
18167;BME280;9208;42.688;23.404;2023-03-01T08:32:39;95979.00;;;9.59;100.00
18167;BME280;9208;42.688;23.404;2023-03-01T08:35:05;95976.75;;;9.48;100.00
18167;BME280;9208;42.688;23.404;2023-03-01T08:37:30;95969.59;;;9.42;100.00
18167;BME280;9208;42.688;23.404;2023-03-01T08:39:58;95972.19;;;9.45;100.00
18167;BME280;9208;42.688;23.404;2023-03-01T08:42:23;95972.78;;;9.49;100.00
18167;BME280;9208;42.688;23.404;2023-03-01T08:44:49;95976.59;;;9.16;100.00
18167;BME280;9208;42.688;23.404;2023-03-01T08:47:14;95966.41;;;9.07;100.00
18167;BME280;9208;42.688;23.404;2023-03-01T08:49:39;95974.59;;;9.07;100.00
18167;BME280;9208;42.688;23.404;2023-03-01T08:52:05;95979.78;;;9.14;100.00
18167;BME280;9208;42.688;23.404;2023-03-01T08:54:30;95981.91;;;9.10;100.00
18167;BME280;9208;42.688;23.404;2023-03-01T08:56:56;95986.94;;;9.21;100.00
18167;BME280;9208;42.688;23.404;2023-03-01T08:59:25;95977.22;;;9.29;100.00
18167;BME280;9208;42.688;23.404;2023-03-01T09:01:51;95984.50;;;9.32;100.00
18167;BME280;9208;42.688;23.404;2023-03-01T09:04:16;95980.69;;;9.29;100.00
18167;BME280;9208;42.688;23.404;2023-03-01T09:06:42;95982.22;;;9.30;100.00
18167;BME280;9208;42.688;23.404;2023-03-01T09:09:13;95988.28;;;9.61;100.00
18167;BME280;9208;42.688;23.404;2023-03-01T09:11:40;95978.69;;;9.75;100.00
18167;BME280;9208;42.688;23.404;2023-03-01T09:14:05;95977.91;;;9.74;100.00
18167;BME280;9208;42.688;23.404;2023-03-01T09:16:31;95977.00;;;9.68;100.00
18167;BME280;9208;42.688;23.404;2023-03-01T09:19:02;95987.38;;;9.55;100.00
18167;BME280;9208;42.688;23.404;2023-03-01T09:21:27;95983.75;;;9.49;100.00
18167;BME280;9208;42.688;23.404;2023-03-01T09:23:53;95975.38;;;9.35;100.00
18167;BME280;9208;42.688;23.404;2023-03-01T09:26:21;95976.59;;;9.34;100.00
18167;BME280;9208;42.688;23.404;2023-03-01T09:28:48;95966.72;;;9.45;100.00
18167;BME280;9208;42.688;23.404;2023-03-01T09:31:15;95969.75;;;9.29;100.00
18167;BME280;9208;42.688;23.404;2023-03-01T09:33:42;95977.06;;;9.23;100.00
18167;BME280;9208;42.688;23.404;2023-03-01T09:36:11;95974.94;;;9.18;100.00
18167;BME280;9208;42.688;23.404;2023-03-01T09:38:37;95967.34;;;9.22;100.00
18167;BME280;9208;42.688;23.404;2023-03-01T09:41:22;95967.94;;;9.17;100.00
18167;BME280;9208;42.688;23.404;2023-03-01T09:43:54;95968.56;;;9.21;100.00
18167;BME280;9208;42.688;23.404;2023-03-01T09:46:23;95960.78;;;9.29;100.00
18167;BME280;9208;42.688;23.404;2023-03-01T09:51:26;95961.25;;;9.18;100.00
18167;BME280;9208;42.688;23.404;2023-03-01T09:53:52;95956.56;;;9.19;100.00
18167;BME280;9208;42.688;23.404;2023-03-01T09:56:24;95951.66;;;9.23;100.00
18167;BME280;9208;42.688;23.404;2023-03-01T10:01:59;95945.59;;;9.46;100.00
18167;BME280;9208;42.688;23.404;2023-03-01T10:04:46;95949.63;;;9.77;100.00
18167;BME280;9208;42.688;23.404;2023-03-01T10:10:33;95945.69;;;9.69;100.00
18167;BME280;9208;42.688;23.404;2023-03-01T10:13:10;95955.13;;;9.68;100.00
18167;BME280;9208;42.688;23.404;2023-03-01T10:15:43;95948.41;;;9.69;100.00
18167;BME280;9208;42.688;23.404;2023-03-01T10:18:21;95950.88;;;9.67;100.00
18167;BME280;9208;42.688;23.404;2023-03-01T10:20:58;95947.22;;;9.61;100.00
18167;BME280;9208;42.688;23.404;2023-03-01T10:23:25;95937.03;;;9.62;100.00
18167;BME280;9208;42.688;23.404;2023-03-01T10:28:48;95924.22;;;9.68;100.00
18167;BME280;9208;42.688;23.404;2023-03-01T10:31:19;95919.25;;;9.66;100.00
18167;BME280;9208;42.688;23.404;2023-03-01T10:33:47;95909.63;;;9.71;100.00
18167;BME280;9208;42.688;23.404;2023-03-01T10:36:16;95905.53;;;9.75;100.00
18167;BME280;9208;42.688;23.404;2023-03-01T10:38:59;95909.16;;;9.81;100.00
18167;BME280;9208;42.688;23.404;2023-03-01T10:41:29;95905.78;;;9.86;100.00
18167;BME280;9208;42.688;23.404;2023-03-01T10:43:57;95908.28;;;9.66;100.00
18167;BME280;9208;42.688;23.404;2023-03-01T10:46:35;95897.94;;;9.61;100.00
18167;BME280;9208;42.688;23.404;2023-03-01T10:51:47;95899.03;;;9.55;100.00
18167;BME280;9208;42.688;23.404;2023-03-01T10:54:20;95901.00;;;9.63;100.00
18167;BME280;9208;42.688;23.404;2023-03-01T10:56:53;95899.47;;;9.62;100.00
18167;BME280;9208;42.688;23.404;2023-03-01T10:59:29;95901.16;;;9.60;100.00
18167;BME280;9208;42.688;23.404;2023-03-01T11:02:15;95901.91;;;9.60;100.00
18167;BME280;9208;42.688;23.404;2023-03-01T11:05:13;95900.38;;;9.68;100.00
18167;BME280;9208;42.688;23.404;2023-03-01T11:07:56;95896.16;;;10.00;100.00
18167;BME280;9208;42.688;23.404;2023-03-01T11:10:31;95899.84;;;10.30;100.00
18167;BME280;9208;42.688;23.404;2023-03-01T11:13:14;95905.97;;;10.48;100.00
18167;BME280;9208;42.688;23.404;2023-03-01T11:15:58;95907.03;;;10.51;100.00
18167;BME280;9208;42.688;23.404;2023-03-01T11:18:31;95902.72;;;10.59;100.00
18167;BME280;9208;42.688;23.404;2023-03-01T11:20:59;95905.13;;;10.66;100.00
18167;BME280;9208;42.688;23.404;2023-03-01T11:23:28;95904.47;;;10.71;100.00
18167;BME280;9208;42.688;23.404;2023-03-01T11:26:00;95903.97;;;10.81;100.00
18167;BME280;9208;42.688;23.404;2023-03-01T11:28:30;95908.09;;;10.77;100.00
18167;BME280;9208;42.688;23.404;2023-03-01T11:36:16;95901.09;;;10.76;100.00
18167;BME280;9208;42.688;23.404;2023-03-01T11:38:45;95904.69;;;10.58;100.00
18167;BME280;9208;42.688;23.404;2023-03-01T11:41:17;95891.75;;;10.59;100.00
18167;BME280;9208;42.688;23.404;2023-03-01T11:44:00;95886.28;;;10.59;100.00
18167;BME280;9208;42.688;23.404;2023-03-01T11:52:22;95871.38;;;10.74;100.00
18167;BME280;9208;42.688;23.404;2023-03-01T12:06:57;95869.63;;;10.86;100.00
18167;BME280;9208;42.688;23.404;2023-03-01T12:22:47;95843.34;;;10.56;100.00
18167;BME280;9208;42.688;23.404;2023-03-01T12:25:25;95850.81;;;10.55;100.00
18167;BME280;9208;42.688;23.404;2023-03-01T12:34:23;95844.16;;;10.71;100.00
18167;BME280;9208;42.688;23.404;2023-03-01T12:37:33;95834.03;;;10.77;100.00
18167;BME280;9208;42.688;23.404;2023-03-01T12:39:47;95847.28;;;10.78;100.00
18167;BME280;9208;42.688;23.404;2023-03-01T12:42:30;95839.06;;;10.78;100.00
18167;BME280;9208;42.688;23.404;2023-03-01T12:45:44;95839.00;;;10.64;100.00
18167;BME280;9208;42.688;23.404;2023-03-01T12:48:35;95837.47;;;10.25;100.00
18167;BME280;9208;42.688;23.404;2023-03-01T12:51:08;95829.75;;;10.14;100.00
18167;BME280;9208;42.688;23.404;2023-03-01T12:53:42;95842.75;;;10.04;100.00
18167;BME280;9208;42.688;23.404;2023-03-01T12:56:14;95832.75;;;9.83;100.00
18167;BME280;9208;42.688;23.404;2023-03-01T13:09:31;95821.91;;;10.69;100.00
18167;BME280;9208;42.688;23.404;2023-03-01T13:12:02;95824.31;;;10.76;100.00
18167;BME280;9208;42.688;23.404;2023-03-01T13:16:56;95834.75;;;10.86;100.00
18167;BME280;9208;42.688;23.404;2023-03-01T13:19:23;95839.09;;;10.93;100.00
18167;BME280;9208;42.688;23.404;2023-03-01T13:21:51;95837.69;;;10.97;100.00
18167;BME280;9208;42.688;23.404;2023-03-01T13:24:39;95834.00;;;11.00;100.00
18167;BME280;9208;42.688;23.404;2023-03-01T13:29:47;95831.38;;;11.06;100.00
18167;BME280;9208;42.688;23.404;2023-03-01T13:32:35;95834.66;;;11.10;100.00
18167;BME280;9208;42.688;23.404;2023-03-01T13:37:41;95828.53;;;11.15;100.00
18167;BME280;9208;42.688;23.404;2023-03-01T13:42:48;95820.31;;;11.15;100.00
18167;BME280;9208;42.688;23.404;2023-03-01T13:45:21;95826.94;;;11.08;100.00
18167;BME280;9208;42.688;23.404;2023-03-01T13:47:52;95822.19;;;11.09;100.00
18167;BME280;9208;42.688;23.404;2023-03-01T13:50:22;95817.16;;;11.07;100.00
18167;BME280;9208;42.688;23.404;2023-03-01T13:53:04;95821.50;;;11.14;100.00
18167;BME280;9208;42.688;23.404;2023-03-01T13:58:29;95828.31;;;11.04;100.00
18167;BME280;9208;42.688;23.404;2023-03-01T14:01:06;95833.69;;;10.98;100.00
18167;BME280;9208;42.688;23.404;2023-03-01T14:03:42;95823.53;;;10.61;100.00
18167;BME280;9208;42.688;23.404;2023-03-01T14:06:13;95816.41;;;10.31;100.00
18167;BME280;9208;42.688;23.404;2023-03-01T14:08:41;95817.91;;;10.55;100.00
18167;BME280;9208;42.688;23.404;2023-03-01T14:19:47;95816.19;;;10.81;100.00
18167;BME280;9208;42.688;23.404;2023-03-01T14:22:24;95814.50;;;10.84;100.00
18167;BME280;9208;42.688;23.404;2023-03-01T14:24:59;95814.84;;;10.77;100.00
18167;BME280;9208;42.688;23.404;2023-03-01T14:27:30;95814.38;;;10.78;100.00
18167;BME280;9208;42.688;23.404;2023-03-01T14:30:01;95816.59;;;10.89;100.00
18167;BME280;9208;42.688;23.404;2023-03-01T14:32:30;95819.97;;;10.84;100.00
18167;BME280;9208;42.688;23.404;2023-03-01T14:34:58;95817.13;;;10.78;100.00
18167;BME280;9208;42.688;23.404;2023-03-01T14:37:29;95813.25;;;10.85;100.00
18167;BME280;9208;42.688;23.404;2023-03-01T14:39:55;95815.63;;;10.92;100.00
18167;BME280;9208;42.688;23.404;2023-03-01T14:42:23;95813.53;;;10.72;100.00
18167;BME280;9208;42.688;23.404;2023-03-01T14:44:51;95818.25;;;10.72;100.00
18167;BME280;9208;42.688;23.404;2023-03-01T14:47:29;95818.84;;;10.52;100.00
18167;BME280;9208;42.688;23.404;2023-03-01T14:52:53;95816.69;;;10.56;100.00
18167;BME280;9208;42.688;23.404;2023-03-01T14:55:22;95809.47;;;10.44;100.00